Terminal Aerodrome Forecast
Issued by NWS

Home | Current Version | Previous Version | Text Only | Print | Product List | Glossary Off
Versions: 1 2 3 4 5 6 7 8 9 10 11 12 13 14 15 16 17 18 19 20 21 22

145
FTUS43 KMPX 192339
TAFAXN
TAF
KAXN 192339Z 2000/2024 14015G21KT P6SM BKN250 WS020/20048KT
     FM200800 15013G20KT P6SM SCT015 OVC150
     FM201200 16013KT P6SM VCSH OVC015
     FM201400 17011KT 4SM -SHRA BR VCTS BKN010CB
     FM201800 21013G20KT P6SM BKN020
     FM202300 28011KT P6SM SCT020 BKN080=

USA.gov is the U.S. government's official web portal to all federal, state and local government web resources and services.